sensor_id;sensor_type;location;lat;lon;timestamp;temperature;humidity
39079;DHT22;24829;49.208;12.080;2023-09-30T00:00:59;16.90;99.90
39079;DHT22;24829;49.208;12.080;2023-09-30T00:03:24;16.80;99.90
39079;DHT22;24829;49.208;12.080;2023-09-30T00:05:50;16.80;99.90
39079;DHT22;24829;49.208;12.080;2023-09-30T00:08:15;16.80;99.90
39079;DHT22;24829;49.208;12.080;2023-09-30T00:10:41;16.70;99.90
39079;DHT22;24829;49.208;12.080;2023-09-30T00:13:07;16.70;99.90
39079;DHT22;24829;49.208;12.080;2023-09-30T00:15:33;16.60;99.90
39079;DHT22;24829;49.208;12.080;2023-09-30T00:17:59;16.60;99.90
39079;DHT22;24829;49.208;12.080;2023-09-30T00:20:24;16.60;99.90
39079;DHT22;24829;49.208;12.080;2023-09-30T00:22:50;16.60;99.90
39079;DHT22;24829;49.208;12.080;2023-09-30T00:25:15;16.60;99.90
39079;DHT22;24829;49.208;12.080;2023-09-30T00:27:41;16.60;99.90
39079;DHT22;24829;49.208;12.080;2023-09-30T00:30:07;16.60;99.90
39079;DHT22;24829;49.208;12.080;2023-09-30T00:32:33;16.60;99.90
39079;DHT22;24829;49.208;12.080;2023-09-30T00:35:01;16.60;99.90
39079;DHT22;24829;49.208;12.080;2023-09-30T00:37:26;16.60;99.90
39079;DHT22;24829;49.208;12.080;2023-09-30T00:39:53;16.60;99.90
39079;DHT22;24829;49.208;12.080;2023-09-30T00:42:18;16.60;99.90
39079;DHT22;24829;49.208;12.080;2023-09-30T00:44:46;16.60;99.90
39079;DHT22;24829;49.208;12.080;2023-09-30T00:47:12;16.60;99.90
39079;DHT22;24829;49.208;12.080;2023-09-30T00:49:38;16.60;99.90
39079;DHT22;24829;49.208;12.080;2023-09-30T00:52:04;16.60;99.90
39079;DHT22;24829;49.208;12.080;2023-09-30T00:54:30;16.60;99.90
39079;DHT22;24829;49.208;12.080;2023-09-30T00:56:57;16.60;99.90
39079;DHT22;24829;49.208;12.080;2023-09-30T00:59:23;16.60;99.90
39079;DHT22;24829;49.208;12.080;2023-09-30T01:01:50;16.60;99.90
39079;DHT22;24829;49.208;12.080;2023-09-30T01:04:16;16.60;99.90
39079;DHT22;24829;49.208;12.080;2023-09-30T01:06:42;16.50;99.90
39079;DHT22;24829;49.208;12.080;2023-09-30T01:09:08;16.40;99.90
39079;DHT22;24829;49.208;12.080;2023-09-30T01:11:34;16.40;99.90
39079;DHT22;24829;49.208;12.080;2023-09-30T01:14:00;16.40;99.90
39079;DHT22;24829;49.208;12.080;2023-09-30T01:16:25;16.40;99.90
39079;DHT22;24829;49.208;12.080;2023-09-30T01:18:51;16.40;99.90
39079;DHT22;24829;49.208;12.080;2023-09-30T01:21:18;16.40;99.90
39079;DHT22;24829;49.208;12.080;2023-09-30T01:23:45;16.40;99.90
39079;DHT22;24829;49.208;12.080;2023-09-30T01:26:12;16.30;99.90
39079;DHT22;24829;49.208;12.080;2023-09-30T01:28:39;16.30;99.90
39079;DHT22;24829;49.208;12.080;2023-09-30T01:31:05;16.20;99.90
39079;DHT22;24829;49.208;12.080;2023-09-30T01:33:31;16.30;99.90
39079;DHT22;24829;49.208;12.080;2023-09-30T01:35:58;16.20;99.90
39079;DHT22;24829;49.208;12.080;2023-09-30T01:38:23;16.20;99.90
39079;DHT22;24829;49.208;12.080;2023-09-30T01:40:49;16.10;99.90
39079;DHT22;24829;49.208;12.080;2023-09-30T01:43:15;16.10;99.90
39079;DHT22;24829;49.208;12.080;2023-09-30T01:45:41;16.00;99.90
39079;DHT22;24829;49.208;12.080;2023-09-30T01:48:07;15.90;99.90
39079;DHT22;24829;49.208;12.080;2023-09-30T01:50:39;15.80;99.90
39079;DHT22;24829;49.208;12.080;2023-09-30T01:53:05;15.70;99.90
39079;DHT22;24829;49.208;12.080;2023-09-30T01:55:35;15.70;99.90
39079;DHT22;24829;49.208;12.080;2023-09-30T01:58:01;15.60;99.90
39079;DHT22;24829;49.208;12.080;2023-09-30T02:00:27;15.60;99.90
39079;DHT22;24829;49.208;12.080;2023-09-30T02:02:57;15.60;99.90
39079;DHT22;24829;49.208;12.080;2023-09-30T02:05:23;15.60;99.90
39079;DHT22;24829;49.208;12.080;2023-09-30T02:07:52;15.50;99.90
39079;DHT22;24829;49.208;12.080;2023-09-30T02:10:18;15.50;99.90
39079;DHT22;24829;49.208;12.080;2023-09-30T02:12:44;15.50;99.90
39079;DHT22;24829;49.208;12.080;2023-09-30T02:15:10;15.50;99.90
39079;DHT22;24829;49.208;12.080;2023-09-30T02:17:37;15.50;99.90
39079;DHT22;24829;49.208;12.080;2023-09-30T02:20:02;15.50;99.90
39079;DHT22;24829;49.208;12.080;2023-09-30T02:22:32;15.50;99.90
39079;DHT22;24829;49.208;12.080;2023-09-30T02:24:58;15.50;99.90
39079;DHT22;24829;49.208;12.080;2023-09-30T02:27:24;15.50;99.90
39079;DHT22;24829;49.208;12.080;2023-09-30T02:29:49;15.50;99.90
39079;DHT22;24829;49.208;12.080;2023-09-30T02:32:15;15.50;99.90
39079;DHT22;24829;49.208;12.080;2023-09-30T02:34:40;15.50;99.90
39079;DHT22;24829;49.208;12.080;2023-09-30T02:37:08;15.60;99.90
39079;DHT22;24829;49.208;12.080;2023-09-30T02:39:33;15.50;99.90
39079;DHT22;24829;49.208;12.080;2023-09-30T02:41:59;15.50;99.90
39079;DHT22;24829;49.208;12.080;2023-09-30T02:44:24;15.50;99.90
39079;DHT22;24829;49.208;12.080;2023-09-30T02:46:50;15.40;99.90
39079;DHT22;24829;49.208;12.080;2023-09-30T02:49:15;15.40;99.90
39079;DHT22;24829;49.208;12.080;2023-09-30T02:51:41;15.30;99.90
39079;DHT22;24829;49.208;12.080;2023-09-30T02:54:06;15.30;99.90
39079;DHT22;24829;49.208;12.080;2023-09-30T02:56:32;15.30;99.90
39079;DHT22;24829;49.208;12.080;2023-09-30T02:58:58;15.30;99.90
39079;DHT22;24829;49.208;12.080;2023-09-30T03:01:25;15.20;99.90
39079;DHT22;24829;49.208;12.080;2023-09-30T03:03:51;15.20;99.90
39079;DHT22;24829;49.208;12.080;2023-09-30T03:06:17;15.20;99.90
39079;DHT22;24829;49.208;12.080;2023-09-30T03:08:44;15.20;99.90
39079;DHT22;24829;49.208;12.080;2023-09-30T03:11:09;15.10;99.90
39079;DHT22;24829;49.208;12.080;2023-09-30T03:13:36;15.10;99.90
39079;DHT22;24829;49.208;12.080;2023-09-30T03:16:02;15.20;99.90
39079;DHT22;24829;49.208;12.080;2023-09-30T03:18:28;15.20;99.90
39079;DHT22;24829;49.208;12.080;2023-09-30T03:20:59;15.10;99.90
39079;DHT22;24829;49.208;12.080;2023-09-30T03:23:28;15.20;99.90
39079;DHT22;24829;49.208;12.080;2023-09-30T03:25:57;15.20;99.90
39079;DHT22;24829;49.208;12.080;2023-09-30T03:28:23;15.20;99.90
39079;DHT22;24829;49.208;12.080;2023-09-30T03:30:49;15.20;99.90
39079;DHT22;24829;49.208;12.080;2023-09-30T03:33:14;15.20;99.90
39079;DHT22;24829;49.208;12.080;2023-09-30T03:35:40;15.30;99.90
39079;DHT22;24829;49.208;12.080;2023-09-30T03:38:07;15.30;99.90
39079;DHT22;24829;49.208;12.080;2023-09-30T03:40:34;15.30;99.90
39079;DHT22;24829;49.208;12.080;2023-09-30T03:43:03;15.30;99.90
39079;DHT22;24829;49.208;12.080;2023-09-30T03:45:31;15.30;99.90
39079;DHT22;24829;49.208;12.080;2023-09-30T03:47:58;15.40;99.90
39079;DHT22;24829;49.208;12.080;2023-09-30T03:50:23;15.40;99.90
39079;DHT22;24829;49.208;12.080;2023-09-30T03:52:49;15.40;99.90
39079;DHT22;24829;49.208;12.080;2023-09-30T03:55:16;15.40;99.90
39079;DHT22;24829;49.208;12.080;2023-09-30T03:57:43;15.40;99.90
39079;DHT22;24829;49.208;12.080;2023-09-30T04:00:13;15.40;99.90
39079;DHT22;24829;49.208;12.080;2023-09-30T04:02:44;15.40;99.90
39079;DHT22;24829;49.208;12.080;2023-09-30T04:05:13;15.40;99.90
39079;DHT22;24829;49.208;12.080;2023-09-30T04:07:40;15.40;99.90
39079;DHT22;24829;49.208;12.080;2023-09-30T04:10:07;15.50;99.90
39079;DHT22;24829;49.208;12.080;2023-09-30T04:12:33;15.50;99.90
39079;DHT22;24829;49.208;12.080;2023-09-30T04:15:00;15.50;99.90
39079;DHT22;24829;49.208;12.080;2023-09-30T04:17:25;15.50;99.90
39079;DHT22;24829;49.208;12.080;2023-09-30T04:19:52;15.50;99.90
39079;DHT22;24829;49.208;12.080;2023-09-30T04:22:18;15.50;99.90
39079;DHT22;24829;49.208;12.080;2023-09-30T04:24:45;15.40;99.90
39079;DHT22;24829;49.208;12.080;2023-09-30T04:27:11;15.50;99.90
39079;DHT22;24829;49.208;12.080;2023-09-30T04:29:36;15.50;99.90
39079;DHT22;24829;49.208;12.080;2023-09-30T04:32:02;15.50;99.90
39079;DHT22;24829;49.208;12.080;2023-09-30T04:34:28;15.40;99.90
39079;DHT22;24829;49.208;12.080;2023-09-30T04:36:54;15.40;99.90
39079;DHT22;24829;49.208;12.080;2023-09-30T04:39:19;15.40;99.90
39079;DHT22;24829;49.208;12.080;2023-09-30T04:41:45;15.40;99.90
39079;DHT22;24829;49.208;12.080;2023-09-30T04:44:12;15.50;99.90
39079;DHT22;24829;49.208;12.080;2023-09-30T04:46:38;15.50;99.90
39079;DHT22;24829;49.208;12.080;2023-09-30T04:49:12;15.50;99.90
39079;DHT22;24829;49.208;12.080;2023-09-30T04:51:38;15.50;99.90
39079;DHT22;24829;49.208;12.080;2023-09-30T04:54:05;15.60;99.90
39079;DHT22;24829;49.208;12.080;2023-09-30T04:56:34;15.50;99.90
39079;DHT22;24829;49.208;12.080;2023-09-30T04:59:00;15.50;99.90
39079;DHT22;24829;49.208;12.080;2023-09-30T05:01:26;15.50;99.90
39079;DHT22;24829;49.208;12.080;2023-09-30T05:03:52;15.50;99.90
39079;DHT22;24829;49.208;12.080;2023-09-30T05:06:18;15.50;99.90
39079;DHT22;24829;49.208;12.080;2023-09-30T05:08:44;15.40;99.90
39079;DHT22;24829;49.208;12.080;2023-09-30T05:11:10;15.50;99.90
39079;DHT22;24829;49.208;12.080;2023-09-30T05:13:35;15.40;99.90
39079;DHT22;24829;49.208;12.080;2023-09-30T05:16:02;15.40;99.90
39079;DHT22;24829;49.208;12.080;2023-09-30T05:18:28;15.40;99.90
39079;DHT22;24829;49.208;12.080;2023-09-30T05:20:55;15.40;99.90
39079;DHT22;24829;49.208;12.080;2023-09-30T05:23:20;15.40;99.90
39079;DHT22;24829;49.208;12.080;2023-09-30T05:25:46;15.40;99.90
39079;DHT22;24829;49.208;12.080;2023-09-30T05:28:11;15.40;99.90
39079;DHT22;24829;49.208;12.080;2023-09-30T05:30:39;15.40;99.90
39079;DHT22;24829;49.208;12.080;2023-09-30T05:33:06;15.40;99.90
39079;DHT22;24829;49.208;12.080;2023-09-30T05:35:32;15.40;99.90
39079;DHT22;24829;49.208;12.080;2023-09-30T05:37:58;15.40;99.90
39079;DHT22;24829;49.208;12.080;2023-09-30T05:40:23;15.30;99.90
39079;DHT22;24829;49.208;12.080;2023-09-30T05:42:55;15.30;99.90
39079;DHT22;24829;49.208;12.080;2023-09-30T05:45:23;15.30;99.90
39079;DHT22;24829;49.208;12.080;2023-09-30T05:47:49;15.30;99.90
39079;DHT22;24829;49.208;12.080;2023-09-30T05:50:15;15.30;99.90
39079;DHT22;24829;49.208;12.080;2023-09-30T05:52:42;15.30;99.90
39079;DHT22;24829;49.208;12.080;2023-09-30T05:55:10;15.30;99.90
39079;DHT22;24829;49.208;12.080;2023-09-30T05:57:36;15.30;99.90
39079;DHT22;24829;49.208;12.080;2023-09-30T06:00:02;15.40;99.90
39079;DHT22;24829;49.208;12.080;2023-09-30T06:02:46;15.40;99.90
39079;DHT22;24829;49.208;12.080;2023-09-30T06:05:11;15.50;99.90
39079;DHT22;24829;49.208;12.080;2023-09-30T06:07:37;15.50;99.90
39079;DHT22;24829;49.208;12.080;2023-09-30T06:10:03;15.60;99.90
39079;DHT22;24829;49.208;12.080;2023-09-30T06:12:29;15.60;99.90
39079;DHT22;24829;49.208;12.080;2023-09-30T06:14:54;15.60;99.90
39079;DHT22;24829;49.208;12.080;2023-09-30T06:17:20;15.60;99.90
39079;DHT22;24829;49.208;12.080;2023-09-30T06:19:48;15.60;99.90
39079;DHT22;24829;49.208;12.080;2023-09-30T06:22:15;15.60;99.90
39079;DHT22;24829;49.208;12.080;2023-09-30T06:24:41;15.60;99.90
39079;DHT22;24829;49.208;12.080;2023-09-30T06:27:07;15.50;99.90
39079;DHT22;24829;49.208;12.080;2023-09-30T06:29:32;15.50;99.90
39079;DHT22;24829;49.208;12.080;2023-09-30T06:31:59;15.40;99.90
39079;DHT22;24829;49.208;12.080;2023-09-30T06:34:24;15.50;99.90
39079;DHT22;24829;49.208;12.080;2023-09-30T06:36:50;15.40;99.90
39079;DHT22;24829;49.208;12.080;2023-09-30T06:39:18;15.40;99.90
39079;DHT22;24829;49.208;12.080;2023-09-30T06:41:44;15.40;99.90
39079;DHT22;24829;49.208;12.080;2023-09-30T06:44:11;15.40;99.90
39079;DHT22;24829;49.208;12.080;2023-09-30T06:46:38;15.30;99.90
39079;DHT22;24829;49.208;12.080;2023-09-30T06:49:04;15.30;99.90
39079;DHT22;24829;49.208;12.080;2023-09-30T06:51:30;15.30;99.90
39079;DHT22;24829;49.208;12.080;2023-09-30T06:53:56;15.40;99.90
39079;DHT22;24829;49.208;12.080;2023-09-30T06:56:21;15.50;99.90
39079;DHT22;24829;49.208;12.080;2023-09-30T06:58:47;15.40;99.90
39079;DHT22;24829;49.208;12.080;2023-09-30T07:01:15;15.50;99.90
39079;DHT22;24829;49.208;12.080;2023-09-30T07:03:42;15.50;99.90
39079;DHT22;24829;49.208;12.080;2023-09-30T07:06:08;15.60;99.90
39079;DHT22;24829;49.208;12.080;2023-09-30T07:08:34;15.60;99.90
39079;DHT22;24829;49.208;12.080;2023-09-30T07:10:59;15.60;99.90
39079;DHT22;24829;49.208;12.080;2023-09-30T07:13:25;15.60;99.90
39079;DHT22;24829;49.208;12.080;2023-09-30T07:15:51;15.70;99.90
39079;DHT22;24829;49.208;12.080;2023-09-30T07:18:17;15.60;99.90
39079;DHT22;24829;49.208;12.080;2023-09-30T07:20:43;15.70;99.90
39079;DHT22;24829;49.208;12.080;2023-09-30T07:23:08;15.70;99.90
39079;DHT22;24829;49.208;12.080;2023-09-30T07:25:34;15.70;99.90
39079;DHT22;24829;49.208;12.080;2023-09-30T07:28:01;15.70;99.90
39079;DHT22;24829;49.208;12.080;2023-09-30T07:30:27;15.80;99.90
39079;DHT22;24829;49.208;12.080;2023-09-30T07:32:53;15.80;99.90
39079;DHT22;24829;49.208;12.080;2023-09-30T07:35:18;15.90;99.90
39079;DHT22;24829;49.208;12.080;2023-09-30T07:37:44;16.00;99.90
39079;DHT22;24829;49.208;12.080;2023-09-30T07:40:10;15.90;99.90
39079;DHT22;24829;49.208;12.080;2023-09-30T07:42:36;16.00;99.90
39079;DHT22;24829;49.208;12.080;2023-09-30T07:45:03;16.00;99.90
39079;DHT22;24829;49.208;12.080;2023-09-30T07:47:31;16.00;99.90
39079;DHT22;24829;49.208;12.080;2023-09-30T07:50:02;16.00;99.90
39079;DHT22;24829;49.208;12.080;2023-09-30T07:52:31;16.00;99.90
39079;DHT22;24829;49.208;12.080;2023-09-30T07:54:57;16.00;99.90
39079;DHT22;24829;49.208;12.080;2023-09-30T07:57:22;16.00;99.90
39079;DHT22;24829;49.208;12.080;2023-09-30T07:59:48;16.00;99.90
39079;DHT22;24829;49.208;12.080;2023-09-30T08:02:14;16.00;99.90
39079;DHT22;24829;49.208;12.080;2023-09-30T08:04:39;16.00;99.90
39079;DHT22;24829;49.208;12.080;2023-09-30T08:07:05;16.00;99.90
39079;DHT22;24829;49.208;12.080;2023-09-30T08:09:31;16.00;99.90
39079;DHT22;24829;49.208;12.080;2023-09-30T08:11:56;15.90;99.90
39079;DHT22;24829;49.208;12.080;2023-09-30T08:14:22;15.90;99.90
39079;DHT22;24829;49.208;12.080;2023-09-30T08:16:47;15.90;99.90
39079;DHT22;24829;49.208;12.080;2023-09-30T08:19:14;15.90;99.90
39079;DHT22;24829;49.208;12.080;2023-09-30T08:21:40;16.00;99.90
39079;DHT22;24829;49.208;12.080;2023-09-30T08:24:06;15.90;99.90
39079;DHT22;24829;49.208;12.080;2023-09-30T08:26:32;15.90;99.90
39079;DHT22;24829;49.208;12.080;2023-09-30T08:28:58;16.00;99.90
39079;DHT22;24829;49.208;12.080;2023-09-30T08:31:24;16.00;99.90
39079;DHT22;24829;49.208;12.080;2023-09-30T08:33:49;16.00;99.90
39079;DHT22;24829;49.208;12.080;2023-09-30T08:36:15;16.10;99.90
39079;DHT22;24829;49.208;12.080;2023-09-30T08:38:41;16.10;99.90
39079;DHT22;24829;49.208;12.080;2023-09-30T08:41:07;16.10;99.90
39079;DHT22;24829;49.208;12.080;2023-09-30T08:43:38;16.10;99.90
39079;DHT22;24829;49.208;12.080;2023-09-30T08:46:05;16.10;99.90
39079;DHT22;24829;49.208;12.080;2023-09-30T08:48:32;16.10;99.90
39079;DHT22;24829;49.208;12.080;2023-09-30T08:51:00;16.20;99.90
39079;DHT22;24829;49.208;12.080;2023-09-30T08:53:26;16.20;99.90
39079;DHT22;24829;49.208;12.080;2023-09-30T08:55:53;16.10;99.90
39079;DHT22;24829;49.208;12.080;2023-09-30T08:58:23;16.10;99.90
39079;DHT22;24829;49.208;12.080;2023-09-30T09:00:50;16.00;99.90
39079;DHT22;24829;49.208;12.080;2023-09-30T09:03:17;16.00;99.90
39079;DHT22;24829;49.208;12.080;2023-09-30T09:05:43;16.00;99.90
39079;DHT22;24829;49.208;12.080;2023-09-30T09:08:09;16.10;99.90
39079;DHT22;24829;49.208;12.080;2023-09-30T09:10:35;16.10;99.90
39079;DHT22;24829;49.208;12.080;2023-09-30T09:13:00;16.30;99.90
39079;DHT22;24829;49.208;12.080;2023-09-30T09:15:27;16.40;99.90
39079;DHT22;24829;49.208;12.080;2023-09-30T09:17:56;16.40;99.90
39079;DHT22;24829;49.208;12.080;2023-09-30T09:20:23;16.50;99.90
39079;DHT22;24829;49.208;12.080;2023-09-30T09:22:54;16.60;99.90
39079;DHT22;24829;49.208;12.080;2023-09-30T09:25:24;16.70;99.90
39079;DHT22;24829;49.208;12.080;2023-09-30T09:27:50;16.70;99.90
39079;DHT22;24829;49.208;12.080;2023-09-30T09:30:24;16.70;99.90
39079;DHT22;24829;49.208;12.080;2023-09-30T09:33:05;16.80;99.90
39079;DHT22;24829;49.208;12.080;2023-09-30T09:35:32;16.80;99.90
39079;DHT22;24829;49.208;12.080;2023-09-30T09:38:06;16.80;99.90
39079;DHT22;24829;49.208;12.080;2023-09-30T09:40:34;17.00;99.90
39079;DHT22;24829;49.208;12.080;2023-09-30T09:43:01;17.10;99.90
39079;DHT22;24829;49.208;12.080;2023-09-30T09:45:32;17.20;99.90
39079;DHT22;24829;49.208;12.080;2023-09-30T09:47:59;17.30;99.90
39079;DHT22;24829;49.208;12.080;2023-09-30T09:50:24;17.40;99.90
39079;DHT22;24829;49.208;12.080;2023-09-30T09:52:52;17.40;99.90
39079;DHT22;24829;49.208;12.080;2023-09-30T09:55:21;17.40;99.90
39079;DHT22;24829;49.208;12.080;2023-09-30T09:57:47;17.40;99.90
39079;DHT22;24829;49.208;12.080;2023-09-30T10:00:23;17.40;99.90
39079;DHT22;24829;49.208;12.080;2023-09-30T10:02:50;17.40;99.90
39079;DHT22;24829;49.208;12.080;2023-09-30T10:05:17;17.60;99.90
39079;DHT22;24829;49.208;12.080;2023-09-30T10:08:03;17.60;99.90
39079;DHT22;24829;49.208;12.080;2023-09-30T10:10:30;17.60;99.90
39079;DHT22;24829;49.208;12.080;2023-09-30T10:12:56;17.70;99.90
39079;DHT22;24829;49.208;12.080;2023-09-30T10:18:09;17.70;99.90
39079;DHT22;24829;49.208;12.080;2023-09-30T10:20:40;17.60;99.90
39079;DHT22;24829;49.208;12.080;2023-09-30T10:23:24;17.70;99.90
39079;DHT22;24829;49.208;12.080;2023-09-30T10:25:52;17.70;99.90
39079;DHT22;24829;49.208;12.080;2023-09-30T10:28:51;17.70;99.90
39079;DHT22;24829;49.208;12.080;2023-09-30T10:31:19;17.90;99.90
39079;DHT22;24829;49.208;12.080;2023-09-30T10:36:36;18.00;99.90
39079;DHT22;24829;49.208;12.080;2023-09-30T10:39:04;18.10;99.90
39079;DHT22;24829;49.208;12.080;2023-09-30T10:46:51;18.10;99.90
39079;DHT22;24829;49.208;12.080;2023-09-30T10:51:43;18.20;99.90
39079;DHT22;24829;49.208;12.080;2023-09-30T10:54:12;18.30;99.90
39079;DHT22;24829;49.208;12.080;2023-09-30T10:56:38;18.30;99.90
39079;DHT22;24829;49.208;12.080;2023-09-30T10:59:03;18.30;99.90
39079;DHT22;24829;49.208;12.080;2023-09-30T11:01:34;18.40;99.90
39079;DHT22;24829;49.208;12.080;2023-09-30T11:04:01;18.50;99.90
39079;DHT22;24829;49.208;12.080;2023-09-30T11:06:29;18.60;99.90
39079;DHT22;24829;49.208;12.080;2023-09-30T11:08:57;18.60;99.90
39079;DHT22;24829;49.208;12.080;2023-09-30T11:11:42;18.70;99.90
39079;DHT22;24829;49.208;12.080;2023-09-30T11:14:27;18.60;99.90
39079;DHT22;24829;49.208;12.080;2023-09-30T11:16:55;18.60;99.90
39079;DHT22;24829;49.208;12.080;2023-09-30T11:19:22;18.50;99.90
39079;DHT22;24829;49.208;12.080;2023-09-30T11:21:51;18.60;99.90
39079;DHT22;24829;49.208;12.080;2023-09-30T11:24:17;18.70;99.90
39079;DHT22;24829;49.208;12.080;2023-09-30T11:26:44;18.90;99.90
39079;DHT22;24829;49.208;12.080;2023-09-30T11:29:10;18.90;99.90
39079;DHT22;24829;49.208;12.080;2023-09-30T11:31:38;18.90;99.90
39079;DHT22;24829;49.208;12.080;2023-09-30T11:34:03;19.00;99.90
39079;DHT22;24829;49.208;12.080;2023-09-30T11:36:30;18.90;99.90
39079;DHT22;24829;49.208;12.080;2023-09-30T11:38:58;18.90;99.90
39079;DHT22;24829;49.208;12.080;2023-09-30T11:41:35;18.90;99.90
39079;DHT22;24829;49.208;12.080;2023-09-30T11:44:06;18.70;99.90
39079;DHT22;24829;49.208;12.080;2023-09-30T11:46:51;18.60;99.90
39079;DHT22;24829;49.208;12.080;2023-09-30T11:49:34;18.60;99.90
39079;DHT22;24829;49.208;12.080;2023-09-30T11:52:12;18.70;99.90
39079;DHT22;24829;49.208;12.080;2023-09-30T11:57:16;19.10;99.90
39079;DHT22;24829;49.208;12.080;2023-09-30T11:59:43;19.10;99.90
39079;DHT22;24829;49.208;12.080;2023-09-30T12:02:09;19.20;99.90
39079;DHT22;24829;49.208;12.080;2023-09-30T12:04:35;19.20;99.90
39079;DHT22;24829;49.208;12.080;2023-09-30T12:07:01;19.20;99.90
39079;DHT22;24829;49.208;12.080;2023-09-30T12:09:27;19.20;99.90
39079;DHT22;24829;49.208;12.080;2023-09-30T12:11:54;19.30;99.90
39079;DHT22;24829;49.208;12.080;2023-09-30T12:14:20;19.50;99.90
39079;DHT22;24829;49.208;12.080;2023-09-30T12:16:46;19.60;99.90
39079;DHT22;24829;49.208;12.080;2023-09-30T12:19:13;19.60;99.90
39079;DHT22;24829;49.208;12.080;2023-09-30T12:21:41;19.50;99.90
39079;DHT22;24829;49.208;12.080;2023-09-30T12:24:07;19.50;99.90
39079;DHT22;24829;49.208;12.080;2023-09-30T12:26:35;19.30;99.90
39079;DHT22;24829;49.208;12.080;2023-09-30T12:29:00;19.30;99.90
39079;DHT22;24829;49.208;12.080;2023-09-30T12:31:26;19.20;99.90
39079;DHT22;24829;49.208;12.080;2023-09-30T12:33:51;19.10;99.90
39079;DHT22;24829;49.208;12.080;2023-09-30T12:36:21;19.10;99.90
39079;DHT22;24829;49.208;12.080;2023-09-30T12:38:47;19.10;99.90
39079;DHT22;24829;49.208;12.080;2023-09-30T12:41:13;19.00;99.90
39079;DHT22;24829;49.208;12.080;2023-09-30T12:43:39;18.90;99.90
39079;DHT22;24829;49.208;12.080;2023-09-30T12:46:10;18.90;99.90
39079;DHT22;24829;49.208;12.080;2023-09-30T12:48:39;18.90;99.90
39079;DHT22;24829;49.208;12.080;2023-09-30T12:51:04;18.90;99.90
39079;DHT22;24829;49.208;12.080;2023-09-30T12:53:32;18.90;99.90
39079;DHT22;24829;49.208;12.080;2023-09-30T12:55:58;19.00;99.90
39079;DHT22;24829;49.208;12.080;2023-09-30T12:58:25;19.00;99.90
39079;DHT22;24829;49.208;12.080;2023-09-30T13:00:56;19.00;99.90
39079;DHT22;24829;49.208;12.080;2023-09-30T13:03:22;19.00;99.90
39079;DHT22;24829;49.208;12.080;2023-09-30T13:05:48;19.10;99.90
39079;DHT22;24829;49.208;12.080;2023-09-30T13:08:14;19.00;99.90
39079;DHT22;24829;49.208;12.080;2023-09-30T13:10:40;19.10;99.90
39079;DHT22;24829;49.208;12.080;2023-09-30T13:13:05;19.10;99.90
39079;DHT22;24829;49.208;12.080;2023-09-30T13:15:31;19.20;99.90
39079;DHT22;24829;49.208;12.080;2023-09-30T13:17:57;19.30;99.90
39079;DHT22;24829;49.208;12.080;2023-09-30T13:20:24;19.30;99.90
39079;DHT22;24829;49.208;12.080;2023-09-30T13:22:51;19.30;99.90
39079;DHT22;24829;49.208;12.080;2023-09-30T13:25:16;19.40;99.90
39079;DHT22;24829;49.208;12.080;2023-09-30T13:27:42;19.40;99.90
39079;DHT22;24829;49.208;12.080;2023-09-30T13:30:08;19.40;99.90
39079;DHT22;24829;49.208;12.080;2023-09-30T13:32:34;19.40;99.90
39079;DHT22;24829;49.208;12.080;2023-09-30T13:35:06;19.50;99.90
39079;DHT22;24829;49.208;12.080;2023-09-30T13:37:33;19.50;99.90
39079;DHT22;24829;49.208;12.080;2023-09-30T13:40:02;19.50;99.90
39079;DHT22;24829;49.208;12.080;2023-09-30T13:42:32;19.50;99.90
39079;DHT22;24829;49.208;12.080;2023-09-30T13:44:57;19.50;99.90
39079;DHT22;24829;49.208;12.080;2023-09-30T13:47:25;19.60;99.90
39079;DHT22;24829;49.208;12.080;2023-09-30T13:49:50;19.60;99.90
39079;DHT22;24829;49.208;12.080;2023-09-30T13:52:16;19.60;99.90
39079;DHT22;24829;49.208;12.080;2023-09-30T13:54:42;19.70;99.90
39079;DHT22;24829;49.208;12.080;2023-09-30T13:57:08;19.70;99.90
39079;DHT22;24829;49.208;12.080;2023-09-30T13:59:35;19.60;99.90
39079;DHT22;24829;49.208;12.080;2023-09-30T14:02:01;19.60;99.90
39079;DHT22;24829;49.208;12.080;2023-09-30T14:04:26;19.70;99.90
39079;DHT22;24829;49.208;12.080;2023-09-30T14:06:52;19.60;99.90
39079;DHT22;24829;49.208;12.080;2023-09-30T14:09:17;19.50;99.90
39079;DHT22;24829;49.208;12.080;2023-09-30T14:11:44;19.50;99.90
39079;DHT22;24829;49.208;12.080;2023-09-30T14:14:09;19.50;99.90
39079;DHT22;24829;49.208;12.080;2023-09-30T14:16:35;19.50;99.90
39079;DHT22;24829;49.208;12.080;2023-09-30T14:19:02;19.60;99.90
39079;DHT22;24829;49.208;12.080;2023-09-30T14:21:29;19.60;99.90
39079;DHT22;24829;49.208;12.080;2023-09-30T14:23:54;19.60;99.90
39079;DHT22;24829;49.208;12.080;2023-09-30T14:26:20;19.60;99.90
39079;DHT22;24829;49.208;12.080;2023-09-30T14:28:45;19.60;99.90
39079;DHT22;24829;49.208;12.080;2023-09-30T14:31:11;19.60;99.90
39079;DHT22;24829;49.208;12.080;2023-09-30T14:33:36;19.60;99.90
39079;DHT22;24829;49.208;12.080;2023-09-30T14:36:03;19.50;99.90
39079;DHT22;24829;49.208;12.080;2023-09-30T14:38:32;19.50;99.90
39079;DHT22;24829;49.208;12.080;2023-09-30T14:40:58;19.50;99.90
39079;DHT22;24829;49.208;12.080;2023-09-30T14:43:23;19.50;99.90
39079;DHT22;24829;49.208;12.080;2023-09-30T14:45:49;19.50;99.90
39079;DHT22;24829;49.208;12.080;2023-09-30T14:48:15;19.40;99.90
39079;DHT22;24829;49.208;12.080;2023-09-30T14:50:50;19.20;99.90
39079;DHT22;24829;49.208;12.080;2023-09-30T14:53:16;19.10;99.90
39079;DHT22;24829;49.208;12.080;2023-09-30T14:55:42;19.10;99.90
39079;DHT22;24829;49.208;12.080;2023-09-30T14:58:08;19.10;99.90
39079;DHT22;24829;49.208;12.080;2023-09-30T15:00:34;19.10;99.90
39079;DHT22;24829;49.208;12.080;2023-09-30T15:03:00;19.00;99.90
39079;DHT22;24829;49.208;12.080;2023-09-30T15:05:26;18.90;99.90
39079;DHT22;24829;49.208;12.080;2023-09-30T15:07:51;18.90;99.90
39079;DHT22;24829;49.208;12.080;2023-09-30T15:10:17;18.90;99.90
39079;DHT22;24829;49.208;12.080;2023-09-30T15:12:44;18.90;99.90
39079;DHT22;24829;49.208;12.080;2023-09-30T15:15:10;18.90;99.90
39079;DHT22;24829;49.208;12.080;2023-09-30T15:17:35;18.90;99.90
39079;DHT22;24829;49.208;12.080;2023-09-30T15:20:01;18.90;99.90
39079;DHT22;24829;49.208;12.080;2023-09-30T15:22:27;18.80;99.90
39079;DHT22;24829;49.208;12.080;2023-09-30T15:24:52;18.80;99.90
39079;DHT22;24829;49.208;12.080;2023-09-30T15:27:18;18.80;99.90
39079;DHT22;24829;49.208;12.080;2023-09-30T15:29:44;18.80;99.90